Aviation Digital Data Service (ADDS)

Output produced by METARs form (1103 UTC 13 December 2017)
found at http://www.aviationweather.gov/adds/metars/
 
LBBG 131100Z 27013KT CAVOK 13/06 Q1017 NOSIG
TAF LBBG 130500Z 1306/1406 25010KT CAVOK 
     BECMG 1320/1322 SCT040 BKN050
       
LBGO 131100Z AUTO VRB02KT 9999 NCD 12/06 Q1016 NOSIG
TAF LBGO 130500Z 1306/1406 VRB04KT 3000 BR NSC 
     TEMPO 1306/1307 1200 BR SCT010 
     BECMG 1307/1309 8000 NSC 
     BECMG 1314/1316 BKN040
       
LBPD 131100Z AUTO 06004KT 020V080 9999 NCD 11/06 Q1017 NOSIG
TAF LBPD 130500Z 1306/1406 VRB04KT 3000 BR SCT010 
     BECMG 1306/1308 7000 NSC 
     BECMG 1308/1310 11010KT CAVOK
       
LBPG 131100Z 15004KT 4000 BR BKN200 11/07 Q1017
LBSF 131100Z VRB02KT CAVOK 08/05 Q1018 NOSIG
TAF LBSF 130500Z 1306/1406 VRB04KT 3000 BR NSC 
     TEMPO 1306/1308 1200 BR SCT010 
     BECMG 1308/1310 13010KT 7000 SCT050 
     BECMG 1316/1318 9999 SCT040 BKN060 
     BECMG 1402/1404 27010KT
       
LBWN 131100Z 29004KT 240V010 CAVOK 15/05 Q1015 NOSIG
TAF LBWN 130500Z 1306/1406 VRB04KT CAVOK 
     TEMPO 1306/1307 5000 BR NSC 
     BECMG 1307/1309 27010KT 
     BECMG 1320/1322 SCT030 BKN040
       
LBBG 131100Z 27013KT CAVOK 13/06 Q1017 NOSIG
TAF LBBG 130500Z 1306/1406 25010KT CAVOK 
     BECMG 1320/1322 SCT040 BKN050
       
LBGO 131100Z AUTO VRB02KT 9999 NCD 12/06 Q1016 NOSIG
TAF LBGO 130500Z 1306/1406 VRB04KT 3000 BR NSC 
     TEMPO 1306/1307 1200 BR SCT010 
     BECMG 1307/1309 8000 NSC 
     BECMG 1314/1316 BKN040
       
LBPD 131100Z AUTO 06004KT 020V080 9999 NCD 11/06 Q1017 NOSIG
TAF LBPD 130500Z 1306/1406 VRB04KT 3000 BR SCT010 
     BECMG 1306/1308 7000 NSC 
     BECMG 1308/1310 11010KT CAVOK
       
LBSF 131100Z VRB02KT CAVOK 08/05 Q1018 NOSIG
TAF LBSF 130500Z 1306/1406 VRB04KT 3000 BR NSC 
     TEMPO 1306/1308 1200 BR SCT010 
     BECMG 1308/1310 13010KT 7000 SCT050 
     BECMG 1316/1318 9999 SCT040 BKN060 
     BECMG 1402/1404 27010KT
       
LBWN 131100Z 29004KT 240V010 CAVOK 15/05 Q1015 NOSIG
TAF LBWN 130500Z 1306/1406 VRB04KT CAVOK 
     TEMPO 1306/1307 5000 BR NSC 
     BECMG 1307/1309 27010KT 
     BECMG 1320/1322 SCT030 BKN040